Date,TemperatureHighF,TemperatureAvgF,TemperatureLowF,DewpointHighF,DewpointAvgF,DewpointLowF,HumidityHigh,HumidityAvg,HumidityLow,PressureMaxIn,PressureMinIn,WindSpeedMaxMPH,WindSpeedAvgMPH,GustSpeedMaxMPH,PrecipitationSumIn
2013-4-1,33,30,28,29,27,24,97,88,77,0.00,40.00,22,5,32,0.00
2013-4-2,45,35,28,34,29,26,97,79,52,0.00,40.00,11,4,22,0.00
2013-4-3,51,42,33,31,26,20,76,54,29,0.00,40.00,8,4,14,0.00
2013-4-4,53,46,39,22,21,19,47,38,30,0.00,40.00,8,4,29,0.00
2013-4-5,44,37,32,33,24,13,97,63,37,0.00,40.00,12,6,22,0.00
2013-4-6,44,38,34,24,18,12,51,45,36,0.00,40.00,14,6,32,0.00
2013-4-7,47,39,31,22,14,0,62,39,18,0.00,40.00,16,7,31,0.00
2013-4-8,37,27,21,24,18,4,95,72,25,0.00,40.00,22,11,42,0.00
2013-4-9,26,22,19,17,14,12,84,71,54,0.00,40.00,20,10,42,0.00
2013-4-10,44,36,24,23,14,6,55,41,28,0.00,40.00,18,6,32,0.00
2013-4-11,45,36,32,33,23,11,98,63,25,0.00,40.00,16,4,26,0.00
2013-4-12,50,38,28,19,12,3,55,36,14,0.00,40.00,8,4,17,0.00
2013-4-13,49,42,32,25,14,-4,52,33,20,0.00,40.00,19,6,43,0.00
2013-4-14,41,30,18,20,9,4,81,43,26,0.00,40.00,14,5,26,0.00
2013-4-15,31,25,19,23,20,16,93,81,58,0.00,40.00,11,8,25,0.00
2013-4-16,28,20,16,20,16,13,91,83,61,0.00,40.00,8,4,21,0.00
2013-4-17,26,18,14,14,10,5,87,70,57,0.00,40.00,13,8,30,0.00
2013-4-18,38,25,14,10,4,-3,57,40,24,0.00,40.00,11,7,19,0.00
2013-4-19,43,34,26,28,16,7,94,50,40,0.00,40.00,24,11,48,0.00
2013-4-20,43,34,27,25,20,15,85,59,36,0.00,40.00,20,8,35,0.00
2013-4-21,49,40,30,19,15,10,55,37,22,0.00,40.00,18,6,35,0.00
2013-4-22,44,37,23,19,12,1,55,36,21,0.00,40.00,18,9,35,0.00
2013-4-23,42,29,18,15,9,4,76,44,22,0.00,40.00,6,3,18,0.00
2013-4-24,42,33,23,11,6,0,38,31,24,0.00,40.00,7,2,19,0.00
2013-4-25,51,41,29,8,3,-7,35,21,10,0.00,40.00,9,5,19,0.00
2013-4-26,56,47,37,13,7,0,26,20,12,0.00,40.00,10,5,18,0.00
2013-4-27,61,51,42,20,16,11,33,25,15,0.00,40.00,7,4,19,0.00
2013-4-28,62,54,47,21,17,15,29,24,17,0.00,40.00,14,7,29,0.00
2013-4-29,60,51,46,22,20,16,35,29,20,0.00,40.00,18,6,34,0.00
2013-4-30,51,43,29,27,9,-12,56,26,12,0.00,40.00,22,7,40,0.00